YCC weather

Cornwall Regional Airport
Cornwall, Ontario, Canada

Public forecast

Using degrees Celsius for public forecast. Weather courtesy of forecast.io.

Closest aviation weather report (METAR) to Cornwall Regional Airport

Closest report is Massena International Richards Field, 15.2 nm (28.2 km) SW. Retrieved 2019/10/21 22:53 UTC (57 minutes ago):

KMSS 212253Z AUTO 06010KT 10SM CLR 12/07 A3011 RMK AO2 SLP199 T01220067

Closest aviation forecast (TAF) to Cornwall Regional Airport

Forecast is more than 6 hours old.

Closest forecast is Massena International Richards Field, 15.2 nm (28.2 km) SW. Retrieved 2019/10/21 17:33 UTC (6 hours ago):

TAF KMSS 211730Z 2117/2218 05005KT P6SM SKC FM221000 08005KT P6SM BKN180 WS020/18035KT FM221700 14012G22KT P6SM VCSH BKN100